This is the latest recevied weather packets stored in our database for station/object OE3PDB-3. If no packets are shown the sender has not sent any weather packets the latest 1 day(s).
| Time | Temp. | Humidity | Pressure | Rain* | Wind** | Luminosity | Snow |
|---|---|---|---|---|---|---|---|
| 1836274421 | 13.33° C | 88% | 1022.9 hPa | 0 mm | 0 m/s | - | - |
| 1836274271 | 13.33° C | 88% | 1022.9 hPa | 0 mm | 0 m/s | - | - |
| 1778028047 | 15° C | 69% | 1007.4 hPa | 0 mm | 0 m/s | - | - |
| 1778027444 | 15° C | 68% | 1007.3 hPa | 0 mm | 0 m/s | - | - |
| 1778026844 | 15.56° C | 67% | 1007 hPa | 0 mm | 0 m/s | - | - |
| 1778026244 | 15.56° C | 66% | 1006.9 hPa | 0 mm | 0 m/s | - | - |
| 1778025043 | 15.56° C | 65% | 1006.8 hPa | 0 mm | 0 m/s | - | - |
| 1778024443 | 15.56° C | 65% | 1006.6 hPa | 0 mm | 0 m/s | - | - |
| 1778023843 | 15.56° C | 65% | 1006.4 hPa | 0 mm | 0 m/s | - | - |
| 1778023243 | 15.56° C | 65% | 1006.3 hPa | 0 mm | 0 m/s | - | - |
| 1778022643 | 15.56° C | 65% | 1006.1 hPa | 0 mm | 0 m/s | - | - |
| 1778022043 | 15° C | 65% | 1006.1 hPa | 0 mm | 0 m/s | - | - |
| 1778021443 | 15° C | 63% | 1006.1 hPa | 0 mm | 0 m/s | - | - |
| 1778020843 | 15.56° C | 63% | 1006 hPa | 0 mm | 0 m/s | - | - |
| 1778020243 | 15.56° C | 63% | 1005.9 hPa | 0 mm | 0 m/s | - | - |
| 1778019643 | 15.56° C | 62% | 1005.8 hPa | 0 mm | 0 m/s | - | - |
| 1778019043 | 15.56° C | 62% | 1005.8 hPa | 0 mm | 0 m/s | - | - |
| 1778018443 | 15.56° C | 61% | 1005.8 hPa | 0 mm | 0 m/s | - | - |
| 1778017843 | 15.56° C | 61% | 1005.7 hPa | 0 mm | 0 m/s | - | - |
| 1778017243 | 16.11° C | 60% | 1005.6 hPa | 0 mm | 0 m/s | - | - |
| 1778016643 | 16.11° C | 59% | 1005.6 hPa | 0 mm | 0 m/s | - | - |
| 1778016043 | 16.11° C | 59% | 1005.4 hPa | 0 mm | 0 m/s | - | - |
| 1778015443 | 15.56° C | 58% | 1005.2 hPa | 0 mm | 0 m/s | - | - |
| 1778014843 | 15° C | 59% | 1005.2 hPa | 0 mm | 0 m/s | - | - |
| 1778014243 | 15° C | 60% | 1005.2 hPa | 0 mm | 0 m/s | - | - |
* Rain latest hour (hover to see other rain measurements)
** Current wind speed in m/s (hover to see current wind gust speed)